Time;durP1;ratioP1;P1;durP2;ratioP2;P2;SDS_P1;SDS_P2;PMS_P1;PMS_P2;Temp;Humidity;BMP_temperature;BMP_pressure;BME280_temperature;BME280_humidity;BME280_pressure;Samples;Min_cycle;Max_cycle;Signal;HPM_P1;HPM_P2
2021/10/18 00:01:00;;;;;;;;;;;12.20;99.90;;;;;;4978207;28;19960;-72
2021/10/18 00:03:25;;;;;;;;;;;12.10;99.90;;;;;;4977820;28;19906;-71
2021/10/18 00:05:51;;;;;;;;;;;12.00;99.90;;;;;;4977805;28;19977;-74
2021/10/18 00:08:16;;;;;;;;;;;12.10;99.90;;;;;;4978000;28;20376;-74
2021/10/18 00:10:42;;;;;;;;;;;12.10;99.90;;;;;;4977698;28;19906;-73
2021/10/18 00:13:07;;;;;;;;;;;12.30;99.90;;;;;;4977700;28;19915;-76
2021/10/18 00:15:33;;;;;;;;;;;12.50;99.90;;;;;;4977653;28;20361;-72
2021/10/18 00:18:02;;;;;;;;;;;12.40;99.90;;;;;;4977634;28;19906;-75
2021/10/18 00:20:27;;;;;;;;;;;12.50;99.90;;;;;;4977868;28;19917;-73
2021/10/18 00:22:53;;;;;;;;;;;12.40;99.90;;;;;;4977505;28;19906;-77
2021/10/18 00:25:19;;;;;;;;;;;12.40;99.90;;;;;;4977436;28;19906;-72
2021/10/18 00:27:45;;;;;;;;;;;12.30;99.90;;;;;;4977783;28;19910;-75
2021/10/18 00:30:11;;;;;;;;;;;12.10;99.90;;;;;;4977480;28;19917;-74
2021/10/18 00:32:37;;;;;;;;;;;12.00;99.90;;;;;;4977413;28;19906;-76
2021/10/18 00:35:03;;;;;;;;;;;11.90;99.90;;;;;;4977605;28;20432;-73
2021/10/18 00:37:29;;;;;;;;;;;12.10;99.90;;;;;;4977208;28;19949;-75
2021/10/18 00:39:54;;;;;;;;;;;11.90;99.90;;;;;;4977422;28;19914;-75
2021/10/18 00:42:20;;;;;;;;;;;12.10;99.90;;;;;;4977178;28;19988;-75
2021/10/18 00:44:46;;;;;;;;;;;12.10;99.90;;;;;;4977269;28;19996;-76
2021/10/18 00:47:15;;;;;;;;;;;12.10;99.90;;;;;;4977150;28;19960;-73
2021/10/18 00:49:41;;;;;;;;;;;11.90;99.90;;;;;;4977064;28;19910;-75
2021/10/18 00:52:06;;;;;;;;;;;11.80;99.90;;;;;;4977009;28;19913;-71
2021/10/18 00:54:32;;;;;;;;;;;11.60;99.90;;;;;;4976991;28;19993;-73
2021/10/18 00:56:58;;;;;;;;;;;11.40;99.90;;;;;;4977527;28;19922;-74
2021/10/18 00:59:23;;;;;;;;;;;11.40;99.90;;;;;;4976817;28;19910;-74
2021/10/18 01:01:50;;;;;;;;;;;11.50;99.90;;;;;;4976746;28;19906;-73
2021/10/18 01:04:16;;;;;;;;;;;11.60;99.90;;;;;;4976790;28;19913;-73
2021/10/18 01:06:41;;;;;;;;;;;11.50;99.90;;;;;;4976189;28;20270;-74
2021/10/18 01:09:07;;;;;;;;;;;11.40;99.90;;;;;;4976716;28;19913;-74
2021/10/18 01:11:32;;;;;;;;;;;11.40;99.90;;;;;;4976819;28;19913;-74
2021/10/18 01:13:58;;;;;;;;;;;11.50;99.90;;;;;;4976538;28;19913;-73
2021/10/18 01:16:23;;;;;;;;;;;11.50;99.90;;;;;;4976502;28;19906;-71
2021/10/18 01:18:49;;;;;;;;;;;11.60;99.90;;;;;;4976689;28;19957;-71
2021/10/18 01:21:14;;;;;;;;;;;11.50;99.90;;;;;;4976438;28;20295;-74
2021/10/18 01:23:40;;;;;;;;;;;11.40;99.90;;;;;;4976536;28;19933;-74
2021/10/18 01:26:05;;;;;;;;;;;11.30;99.90;;;;;;4976109;28;19922;-73
2021/10/18 01:28:31;;;;;;;;;;;11.30;99.90;;;;;;4976324;28;19906;-73
2021/10/18 01:30:56;;;;;;;;;;;11.10;99.90;;;;;;4976604;28;19910;-71
2021/10/18 01:33:22;;;;;;;;;;;11.10;99.90;;;;;;4976199;28;19913;-79
2021/10/18 01:35:47;;;;;;;;;;;11.10;99.90;;;;;;4976486;28;19970;-74
2021/10/18 01:38:13;;;;;;;;;;;11.20;99.90;;;;;;4976307;28;19906;-70
2021/10/18 01:40:38;;;;;;;;;;;11.30;99.90;;;;;;4976090;28;19996;-74
2021/10/18 01:43:04;;;;;;;;;;;11.30;99.90;;;;;;4976325;28;19937;-72
2021/10/18 01:45:30;;;;;;;;;;;11.20;99.90;;;;;;4976061;28;19906;-78
2021/10/18 01:47:55;;;;;;;;;;;11.20;99.90;;;;;;4975950;28;19906;-76
2021/10/18 01:50:22;;;;;;;;;;;11.20;99.90;;;;;;4976125;28;19956;-75
2021/10/18 01:52:49;;;;;;;;;;;11.20;99.90;;;;;;4976135;28;20278;-72
2021/10/18 01:55:14;;;;;;;;;;;11.30;99.90;;;;;;4976088;28;19906;-72
2021/10/18 01:57:40;;;;;;;;;;;11.20;99.90;;;;;;4975733;28;19906;-72
2021/10/18 02:00:06;;;;;;;;;;;11.30;99.90;;;;;;4975654;28;19944;-75
2021/10/18 02:02:32;;;;;;;;;;;11.30;99.90;;;;;;4975646;28;19910;-74
2021/10/18 02:04:57;;;;;;;;;;;11.40;99.90;;;;;;4975675;28;19906;-76
2021/10/18 02:07:23;;;;;;;;;;;11.40;99.90;;;;;;4975613;28;19906;-72
2021/10/18 02:09:48;;;;;;;;;;;11.40;99.90;;;;;;4975826;28;19906;-73
2021/10/18 02:12:14;;;;;;;;;;;11.40;99.90;;;;;;4975546;28;19912;-78
2021/10/18 02:14:39;;;;;;;;;;;11.40;99.90;;;;;;4975873;28;19913;-76
2021/10/18 02:17:05;;;;;;;;;;;11.40;99.90;;;;;;4975361;28;20262;-74
2021/10/18 02:19:30;;;;;;;;;;;11.40;99.90;;;;;;4975329;28;19986;-73
2021/10/18 02:21:56;;;;;;;;;;;11.40;99.90;;;;;;4975400;28;19909;-73
2021/10/18 02:24:21;;;;;;;;;;;11.40;99.90;;;;;;4975573;28;19910;-70
2021/10/18 02:26:47;;;;;;;;;;;11.40;99.90;;;;;;4975177;28;20366;-71
2021/10/18 02:29:12;;;;;;;;;;;11.20;99.90;;;;;;4975254;28;19914;-74
2021/10/18 02:31:38;;;;;;;;;;;11.10;99.90;;;;;;4975790;28;19906;-76
2021/10/18 02:34:03;;;;;;;;;;;11.10;99.90;;;;;;4975243;28;19906;-76
2021/10/18 02:36:30;;;;;;;;;;;11.10;99.90;;;;;;4975177;28;19906;-72
2021/10/18 02:38:56;;;;;;;;;;;11.10;99.90;;;;;;4975132;28;19968;-73
2021/10/18 02:41:21;;;;;;;;;;;11.10;99.90;;;;;;4975455;28;19910;-73
2021/10/18 02:43:47;;;;;;;;;;;11.10;99.90;;;;;;4975084;28;19913;-71
2021/10/18 02:46:12;;;;;;;;;;;11.10;99.90;;;;;;4975161;28;19998;-70
2021/10/18 02:48:38;;;;;;;;;;;11.00;99.90;;;;;;4975008;28;20263;-75
2021/10/18 02:51:04;;;;;;;;;;;11.00;99.90;;;;;;4975246;28;20270;-71
2021/10/18 02:53:29;;;;;;;;;;;10.90;99.90;;;;;;4975055;28;20289;-75
2021/10/18 02:55:55;;;;;;;;;;;10.90;99.90;;;;;;4975283;28;20004;-74
2021/10/18 02:58:20;;;;;;;;;;;10.90;99.90;;;;;;4974898;28;20446;-71
2021/10/18 03:00:46;;;;;;;;;;;10.90;99.90;;;;;;4975516;28;20008;-73
2021/10/18 03:03:11;;;;;;;;;;;10.80;99.90;;;;;;4974850;28;20263;-73
2021/10/18 03:05:37;;;;;;;;;;;10.80;99.90;;;;;;4975103;28;19906;-72
2021/10/18 03:08:03;;;;;;;;;;;10.90;99.90;;;;;;4974827;28;19988;-73
2021/10/18 03:10:28;;;;;;;;;;;11.00;99.90;;;;;;4974897;28;20290;-77
2021/10/18 03:12:54;;;;;;;;;;;11.10;99.90;;;;;;4975418;28;19910;-74
2021/10/18 03:15:19;;;;;;;;;;;11.00;99.90;;;;;;4974719;28;19906;-76
2021/10/18 03:17:46;;;;;;;;;;;11.10;99.90;;;;;;4975117;28;19914;-76
2021/10/18 03:20:12;;;;;;;;;;;11.20;99.90;;;;;;4974600;28;19910;-73
2021/10/18 03:22:38;;;;;;;;;;;11.20;99.90;;;;;;4974682;28;19913;-78
2021/10/18 03:25:03;;;;;;;;;;;11.20;99.90;;;;;;4975062;28;19913;-75
2021/10/18 03:27:30;;;;;;;;;;;11.10;99.90;;;;;;4974201;28;19926;-73
2021/10/18 03:29:56;;;;;;;;;;;11.10;99.90;;;;;;4978313;28;19917;-75
2021/10/18 03:32:21;;;;;;;;;;;11.00;99.90;;;;;;4978456;28;19910;-74
2021/10/18 03:34:47;;;;;;;;;;;11.00;99.90;;;;;;4978665;28;19907;-71
2021/10/18 03:37:12;;;;;;;;;;;11.00;99.90;;;;;;4978655;28;19906;-74
2021/10/18 03:39:38;;;;;;;;;;;10.90;99.90;;;;;;4978825;28;19953;-70
2021/10/18 03:42:04;;;;;;;;;;;10.90;99.90;;;;;;4978248;28;20389;-75
2021/10/18 03:44:29;;;;;;;;;;;10.90;99.90;;;;;;4978297;28;19953;-75
2021/10/18 03:46:55;;;;;;;;;;;10.90;99.90;;;;;;4978490;28;19907;-76
2021/10/18 03:49:21;;;;;;;;;;;11.00;99.90;;;;;;4978126;28;19997;-74
2021/10/18 03:51:46;;;;;;;;;;;11.10;99.90;;;;;;4978401;28;19906;-74
2021/10/18 03:54:12;;;;;;;;;;;11.00;99.90;;;;;;4978088;28;19917;-74
2021/10/18 03:56:38;;;;;;;;;;;11.00;99.90;;;;;;4978241;28;19913;-72
2021/10/18 03:59:03;;;;;;;;;;;11.00;99.90;;;;;;4977831;28;19957;-76
2021/10/18 04:01:29;;;;;;;;;;;11.00;99.90;;;;;;4977948;28;19913;-77
2021/10/18 04:03:54;;;;;;;;;;;11.00;99.90;;;;;;4978483;28;19957;-74
2021/10/18 04:06:20;;;;;;;;;;;11.10;99.90;;;;;;4977804;28;19972;-74
2021/10/18 04:08:49;;;;;;;;;;;11.20;99.90;;;;;;4976453;28;19996;-76
2021/10/18 04:11:14;;;;;;;;;;;11.30;99.90;;;;;;4992810;28;19906;-73
2021/10/18 04:13:40;;;;;;;;;;;11.40;99.90;;;;;;4977736;28;19906;-71
2021/10/18 04:16:05;;;;;;;;;;;11.40;99.90;;;;;;4977686;28;20381;-72
2021/10/18 04:18:31;;;;;;;;;;;11.60;99.90;;;;;;4977482;28;20370;-72
2021/10/18 04:20:56;;;;;;;;;;;11.60;99.90;;;;;;4977607;28;20358;-75
2021/10/18 04:23:22;;;;;;;;;;;11.60;99.90;;;;;;4977584;28;19906;-70
2021/10/18 04:25:47;;;;;;;;;;;11.70;99.90;;;;;;4977420;28;19922;-74
2021/10/18 04:28:13;;;;;;;;;;;11.70;99.90;;;;;;4977763;28;19910;-72
2021/10/18 04:30:38;;;;;;;;;;;11.70;99.90;;;;;;4977354;28;19906;-75
2021/10/18 04:33:04;;;;;;;;;;;11.50;99.90;;;;;;4977651;28;19906;-76
2021/10/18 04:35:29;;;;;;;;;;;11.60;99.90;;;;;;4977628;28;19906;-70
2021/10/18 04:37:55;;;;;;;;;;;11.60;99.90;;;;;;4977314;28;19912;-74
2021/10/18 04:40:20;;;;;;;;;;;11.70;99.90;;;;;;4975905;28;20013;-76
2021/10/18 04:42:46;;;;;;;;;;;11.70;99.90;;;;;;4977127;28;19906;-77
2021/10/18 04:45:11;;;;;;;;;;;11.80;99.90;;;;;;4977327;28;19906;-71
2021/10/18 04:47:42;;;;;;;;;;;12.00;99.90;;;;;;4977061;28;19946;-75
2021/10/18 04:50:08;;;;;;;;;;;12.10;99.90;;;;;;4977552;28;19961;-77
2021/10/18 04:52:33;;;;;;;;;;;12.20;99.90;;;;;;4976955;28;19906;-78
2021/10/18 04:54:59;;;;;;;;;;;12.30;99.90;;;;;;4977425;28;19913;-73
2021/10/18 04:57:24;;;;;;;;;;;12.40;99.90;;;;;;4976884;28;19913;-70
2021/10/18 04:59:50;;;;;;;;;;;12.40;99.90;;;;;;4976857;28;19910;-72
2021/10/18 05:02:15;;;;;;;;;;;12.40;99.90;;;;;;4976932;28;19913;-71
2021/10/18 05:04:41;;;;;;;;;;;12.40;99.90;;;;;;4976944;28;19910;-75
2021/10/18 05:07:06;;;;;;;;;;;12.50;99.90;;;;;;4976744;28;19906;-75
2021/10/18 05:09:32;;;;;;;;;;;12.50;99.90;;;;;;4976906;28;19906;-70
2021/10/18 05:11:57;;;;;;;;;;;12.60;99.90;;;;;;4976601;28;19965;-73
2021/10/18 05:14:23;;;;;;;;;;;12.60;99.90;;;;;;4976649;28;19933;-73
2021/10/18 05:16:48;;;;;;;;;;;12.70;99.90;;;;;;4976800;28;19913;-73
2021/10/18 05:19:14;;;;;;;;;;;12.70;99.90;;;;;;4976472;28;19910;-75
2021/10/18 05:21:39;;;;;;;;;;;12.70;99.90;;;;;;4976447;28;19906;-75
2021/10/18 05:24:05;;;;;;;;;;;12.70;99.90;;;;;;4976554;28;20247;-72
2021/10/18 05:26:31;;;;;;;;;;;12.80;99.90;;;;;;4976099;28;19981;-71
2021/10/18 05:28:56;;;;;;;;;;;12.80;99.90;;;;;;4976319;28;19906;-72
2021/10/18 05:31:22;;;;;;;;;;;12.70;99.90;;;;;;4976297;28;19961;-72
2021/10/18 05:33:47;;;;;;;;;;;12.80;99.90;;;;;;4976455;28;19965;-76
2021/10/18 05:36:13;;;;;;;;;;;12.70;99.90;;;;;;4976181;28;19945;-73
2021/10/18 05:38:38;;;;;;;;;;;12.70;99.90;;;;;;4976359;28;19917;-69
2021/10/18 05:41:04;;;;;;;;;;;12.80;99.90;;;;;;4976042;28;19906;-73
2021/10/18 05:43:29;;;;;;;;;;;12.80;99.90;;;;;;4976118;28;19906;-70
2021/10/18 05:45:55;;;;;;;;;;;12.80;99.90;;;;;;4976170;28;20256;-73
2021/10/18 05:48:21;;;;;;;;;;;12.80;99.90;;;;;;4975974;28;20422;-71
2021/10/18 05:50:46;;;;;;;;;;;12.80;99.90;;;;;;4975785;28;19906;-76
2021/10/18 05:53:12;;;;;;;;;;;12.90;99.90;;;;;;4975923;28;19969;-73
2021/10/18 05:55:38;;;;;;;;;;;12.90;99.90;;;;;;4976243;28;19910;-72
2021/10/18 05:58:05;;;;;;;;;;;12.90;99.90;;;;;;4975789;28;19906;-75
2021/10/18 06:00:34;;;;;;;;;;;12.90;99.90;;;;;;4976009;28;19957;-76
2021/10/18 06:03:00;;;;;;;;;;;12.90;99.90;;;;;;4975757;28;19910;-74
2021/10/18 06:05:26;;;;;;;;;;;12.90;99.90;;;;;;4975677;28;19913;-72
2021/10/18 06:07:51;;;;;;;;;;;12.90;99.90;;;;;;4975927;28;19910;-77
2021/10/18 06:10:17;;;;;;;;;;;13.00;99.90;;;;;;4975803;28;20354;-74
2021/10/18 06:12:43;;;;;;;;;;;13.00;99.90;;;;;;4975573;28;20330;-71
2021/10/18 06:15:10;;;;;;;;;;;13.00;99.90;;;;;;4975813;28;19906;-73
2021/10/18 06:17:36;;;;;;;;;;;12.90;99.90;;;;;;4975523;28;20367;-76
2021/10/18 06:20:02;;;;;;;;;;;13.00;99.90;;;;;;4976006;28;19916;-73
2021/10/18 06:22:28;;;;;;;;;;;13.00;99.90;;;;;;4975308;28;19945;-72
2021/10/18 06:24:53;;;;;;;;;;;13.00;99.90;;;;;;4975392;28;19961;-70
2021/10/18 06:27:21;;;;;;;;;;;13.00;99.90;;;;;;4974978;28;20390;-74
2021/10/18 06:29:46;;;;;;;;;;;13.10;99.90;;;;;;4975379;28;19910;-72
2021/10/18 06:32:12;;;;;;;;;;;13.10;99.90;;;;;;4975888;28;20262;-75
2021/10/18 06:34:37;;;;;;;;;;;13.10;99.90;;;;;;4975235;28;20273;-73
2021/10/18 06:37:03;;;;;;;;;;;13.10;99.90;;;;;;4975220;28;20422;-75
2021/10/18 06:39:28;;;;;;;;;;;13.20;99.90;;;;;;4975175;28;20397;-70
2021/10/18 06:41:54;;;;;;;;;;;13.20;99.90;;;;;;4975422;28;19956;-72
2021/10/18 06:44:19;;;;;;;;;;;13.20;99.90;;;;;;4975154;28;19949;-74
2021/10/18 06:46:45;;;;;;;;;;;13.20;99.90;;;;;;4975238;28;19913;-69
2021/10/18 06:49:10;;;;;;;;;;;13.20;99.90;;;;;;4975224;28;19910;-69
2021/10/18 06:51:44;;;;;;;;;;;13.20;99.90;;;;;;4975315;28;19906;-72
2021/10/18 06:54:11;;;;;;;;;;;13.30;99.90;;;;;;4973529;28;19906;-73
2021/10/18 06:56:40;;;;;;;;;;;13.30;99.90;;;;;;4974029;28;19917;-73
2021/10/18 06:59:06;;;;;;;;;;;13.30;99.90;;;;;;4974231;28;19972;-74
2021/10/18 07:01:31;;;;;;;;;;;13.40;99.90;;;;;;4974307;28;19910;-78
2021/10/18 07:03:57;;;;;;;;;;;13.40;99.90;;;;;;4976358;28;19910;-76
2021/10/18 07:06:22;;;;;;;;;;;13.40;99.90;;;;;;4978814;28;20319;-79
2021/10/18 07:08:48;;;;;;;;;;;13.40;99.90;;;;;;4978461;28;19917;-76
2021/10/18 07:11:13;;;;;;;;;;;13.50;99.90;;;;;;4978999;28;19906;-75
2021/10/18 07:13:39;;;;;;;;;;;13.50;99.90;;;;;;4978467;28;19910;-76
2021/10/18 07:16:04;;;;;;;;;;;13.50;99.90;;;;;;4978212;28;19910;-77
2021/10/18 07:18:30;;;;;;;;;;;13.60;99.90;;;;;;4978904;28;19906;-78
2021/10/18 07:20:55;;;;;;;;;;;13.60;99.90;;;;;;4978092;28;19914;-77
2021/10/18 07:23:21;;;;;;;;;;;13.60;99.90;;;;;;4978013;28;20013;-78
2021/10/18 07:25:46;;;;;;;;;;;13.60;99.90;;;;;;4977938;28;19918;-77
2021/10/18 07:28:12;;;;;;;;;;;13.60;99.90;;;;;;4977732;28;19909;-78
2021/10/18 07:30:40;;;;;;;;;;;13.60;99.90;;;;;;4994766;28;19913;-78
2021/10/18 07:33:05;;;;;;;;;;;13.70;99.90;;;;;;4997619;28;20259;-78
2021/10/18 07:35:33;;;;;;;;;;;13.80;99.90;;;;;;4997585;28;19910;-78
2021/10/18 07:37:59;;;;;;;;;;;13.70;99.90;;;;;;4992439;28;19910;-75
2021/10/18 07:40:26;;;;;;;;;;;13.70;99.90;;;;;;4977696;28;19914;-81
2021/10/18 07:42:51;;;;;;;;;;;13.70;99.90;;;;;;4984206;28;19988;-79
2021/10/18 07:45:17;;;;;;;;;;;13.70;99.90;;;;;;4997677;28;19951;-80
2021/10/18 07:47:43;;;;;;;;;;;13.70;99.90;;;;;;4984848;28;19949;-77
2021/10/18 07:50:10;;;;;;;;;;;13.80;99.90;;;;;;4977798;28;19917;-78
2021/10/18 07:52:37;;;;;;;;;;;13.80;99.90;;;;;;4978446;28;19912;-77
2021/10/18 07:55:05;;;;;;;;;;;13.80;99.90;;;;;;4980311;28;19909;-80
2021/10/18 07:57:30;;;;;;;;;;;13.90;99.90;;;;;;4997969;28;19906;-83
2021/10/18 07:59:56;;;;;;;;;;;13.90;99.90;;;;;;4992610;28;19922;-74
2021/10/18 08:02:21;;;;;;;;;;;14.00;99.90;;;;;;4977884;28;19960;-78
2021/10/18 08:04:47;;;;;;;;;;;14.00;99.90;;;;;;4977713;28;19910;-74
2021/10/18 08:07:12;;;;;;;;;;;14.00;99.90;;;;;;4978460;28;19906;-81
2021/10/18 08:09:38;;;;;;;;;;;14.10;99.90;;;;;;4977231;28;20401;-81
2021/10/18 08:12:03;;;;;;;;;;;14.10;99.90;;;;;;4978028;28;20294;-79
2021/10/18 08:14:29;;;;;;;;;;;14.10;99.90;;;;;;4977372;28;19906;-79
2021/10/18 08:16:55;;;;;;;;;;;14.20;99.90;;;;;;4977326;28;19957;-76
2021/10/18 08:19:20;;;;;;;;;;;14.20;99.90;;;;;;4978062;28;19910;-75
2021/10/18 08:21:46;;;;;;;;;;;14.30;99.90;;;;;;4976829;28;19910;-77
2021/10/18 08:24:11;;;;;;;;;;;14.30;99.90;;;;;;4985677;28;19909;-80
2021/10/18 08:26:37;;;;;;;;;;;14.40;99.90;;;;;;4977306;28;20437;-77
2021/10/18 08:29:03;;;;;;;;;;;14.40;99.90;;;;;;4977246;28;19957;-81
2021/10/18 08:31:28;;;;;;;;;;;14.40;99.90;;;;;;4977732;28;19946;-78
2021/10/18 08:33:54;;;;;;;;;;;14.50;99.90;;;;;;4977058;28;19910;-81
2021/10/18 08:36:20;;;;;;;;;;;14.60;99.90;;;;;;4977218;28;19976;-78
2021/10/18 08:38:48;;;;;;;;;;;14.60;99.90;;;;;;4977141;28;19914;-83
2021/10/18 08:46:22;;;;;;;;;;;14.70;99.90;;;;;;4977086;28;19917;-77
2021/10/18 08:48:54;;;;;;;;;;;14.70;99.90;;;;;;4991294;28;19909;-75
2021/10/18 08:51:20;;;;;;;;;;;14.80;99.90;;;;;;4996897;28;19905;-73
2021/10/18 08:53:46;;;;;;;;;;;14.90;99.90;;;;;;4996625;28;19928;-73
2021/10/18 08:56:12;;;;;;;;;;;14.90;99.90;;;;;;4977525;28;19906;-73
2021/10/18 08:58:38;;;;;;;;;;;14.90;99.90;;;;;;4976692;28;19959;-77
2021/10/18 09:01:03;;;;;;;;;;;15.00;99.90;;;;;;4976497;28;19907;-74
2021/10/18 09:03:31;;;;;;;;;;;15.00;99.90;;;;;;4977331;28;19910;-74
2021/10/18 09:06:13;;;;;;;;;;;15.10;99.90;;;;;;4976736;28;20374;-75
2021/10/18 09:08:39;;;;;;;;;;;15.10;99.90;;;;;;4976156;28;19910;-74
2021/10/18 09:11:08;;;;;;;;;;;15.10;99.90;;;;;;4985584;28;19910;-72
2021/10/18 09:13:35;;;;;;;;;;;15.20;99.90;;;;;;4977468;28;20415;-73
2021/10/18 09:16:00;;;;;;;;;;;15.20;99.90;;;;;;4975960;28;20023;-74
2021/10/18 09:18:26;;;;;;;;;;;15.20;99.90;;;;;;4976929;28;20360;-75
2021/10/18 09:20:51;;;;;;;;;;;15.20;99.90;;;;;;4976756;28;19914;-79
2021/10/18 09:23:24;;;;;;;;;;;15.20;99.90;;;;;;4976196;28;19953;-77
2021/10/18 09:25:51;;;;;;;;;;;15.30;99.90;;;;;;4975607;28;19924;-77
2021/10/18 09:28:21;;;;;;;;;;;15.30;99.90;;;;;;4976250;28;19957;-72
2021/10/18 09:30:47;;;;;;;;;;;15.40;99.90;;;;;;4976584;28;20243;-71
2021/10/18 09:33:29;;;;;;;;;;;15.40;99.90;;;;;;4976198;28;19917;-78
2021/10/18 09:35:55;;;;;;;;;;;15.40;99.90;;;;;;4976489;28;19950;-80
2021/10/18 09:38:21;;;;;;;;;;;15.40;99.90;;;;;;4975723;28;20075;-78
2021/10/18 09:40:48;;;;;;;;;;;15.40;99.90;;;;;;4976035;28;19914;-79
2021/10/18 09:43:28;;;;;;;;;;;15.40;99.90;;;;;;4975994;28;20049;-77
2021/10/18 10:53:13;;;;;;;;;;;16.50;99.90;;;;;;4973953;28;20413;-75
2021/10/18 10:55:39;;;;;;;;;;;16.60;99.90;;;;;;4974876;28;19906;-79
2021/10/18 10:58:24;;;;;;;;;;;16.60;99.90;;;;;;4974874;28;19961;-82
2021/10/18 11:00:50;;;;;;;;;;;16.50;99.90;;;;;;4974151;28;19952;-79
2021/10/18 11:03:23;;;;;;;;;;;16.60;99.90;;;;;;4974358;28;19906;-77
2021/10/18 11:05:59;;;;;;;;;;;16.60;99.90;;;;;;4974785;28;19910;-79
2021/10/18 11:08:32;;;;;;;;;;;16.60;99.90;;;;;;4975001;28;19973;-79
2021/10/18 11:11:07;;;;;;;;;;;16.70;99.90;;;;;;4975070;28;19906;-77
2021/10/18 11:13:50;;;;;;;;;;;16.70;99.90;;;;;;4974749;28;20325;-80
2021/10/18 11:16:19;;;;;;;;;;;16.80;99.90;;;;;;4974983;28;19906;-80
2021/10/18 11:18:53;;;;;;;;;;;16.70;99.90;;;;;;4974929;28;19944;-80
2021/10/18 11:21:26;;;;;;;;;;;16.80;99.90;;;;;;4974997;28;20272;-81
2021/10/18 11:24:09;;;;;;;;;;;16.80;99.90;;;;;;4974637;28;20441;-77
2021/10/18 11:26:36;;;;;;;;;;;16.90;99.90;;;;;;4974635;28;20012;-77
2021/10/18 11:29:03;;;;;;;;;;;16.90;99.90;;;;;;4974643;28;19916;-80
2021/10/18 11:31:32;;;;;;;;;;;17.00;99.90;;;;;;4974596;28;19952;-77
2021/10/18 11:33:58;;;;;;;;;;;17.00;99.90;;;;;;4974865;28;19989;-80
2021/10/18 11:36:24;;;;;;;;;;;17.00;99.90;;;;;;4974571;28;19906;-77
2021/10/18 11:39:04;;;;;;;;;;;17.00;99.90;;;;;;4974487;28;19977;-81
2021/10/18 11:41:30;;;;;;;;;;;17.00;99.90;;;;;;4974870;28;19928;-79
2021/10/18 11:43:55;;;;;;;;;;;17.10;99.90;;;;;;4974495;28;20410;-81
2021/10/18 11:46:21;;;;;;;;;;;17.20;99.90;;;;;;4974719;28;19952;-77
2021/10/18 11:48:46;;;;;;;;;;;17.20;99.90;;;;;;4974715;28;19998;-77
2021/10/18 11:51:12;;;;;;;;;;;17.20;99.90;;;;;;4978044;28;19973;-79
2021/10/18 11:53:41;;;;;;;;;;;17.20;99.90;;;;;;4978629;28;19992;-80
2021/10/18 11:56:06;;;;;;;;;;;17.20;99.90;;;;;;4978060;28;19929;-78
2021/10/18 11:58:33;;;;;;;;;;;17.20;99.90;;;;;;4977886;28;19906;-77
2021/10/18 12:01:14;;;;;;;;;;;17.20;99.90;;;;;;4977946;28;20330;-80
2021/10/18 12:03:39;;;;;;;;;;;17.20;99.90;;;;;;4978446;28;19906;-79
2021/10/18 12:06:09;;;;;;;;;;;17.20;99.90;;;;;;4978108;28;19913;-77
2021/10/18 12:08:39;;;;;;;;;;;17.20;99.90;;;;;;4978077;28;19960;-78
2021/10/18 12:11:06;;;;;;;;;;;17.20;99.90;;;;;;4977688;28;20363;-80
2021/10/18 12:13:32;;;;;;;;;;;17.30;99.90;;;;;;4977927;28;19910;-75
2021/10/18 12:15:58;;;;;;;;;;;17.30;99.90;;;;;;4977163;28;20396;-75
2021/10/18 12:18:29;;;;;;;;;;;17.30;99.90;;;;;;4976292;28;19953;-77
2021/10/18 12:20:58;;;;;;;;;;;17.30;99.90;;;;;;4977475;28;19910;-76
2021/10/18 12:23:26;;;;;;;;;;;17.30;99.90;;;;;;4977320;28;19906;-73
2021/10/18 12:26:02;;;;;;;;;;;17.40;99.90;;;;;;4977394;28;20271;-73
2021/10/18 12:28:44;;;;;;;;;;;17.40;99.90;;;;;;4977643;28;19906;-76
2021/10/18 12:31:30;;;;;;;;;;;17.30;99.90;;;;;;4977321;28;19953;-78
2021/10/18 12:33:58;;;;;;;;;;;17.30;99.90;;;;;;4970482;28;19906;-78
2021/10/18 12:36:24;;;;;;;;;;;17.30;99.90;;;;;;4976063;28;19938;-77
2021/10/18 12:38:49;;;;;;;;;;;17.30;99.90;;;;;;4975272;28;19953;-79
2021/10/18 12:41:17;;;;;;;;;;;17.30;99.90;;;;;;4976242;28;19914;-78
2021/10/18 12:43:43;;;;;;;;;;;17.30;99.90;;;;;;4977138;28;19906;-78
2021/10/18 12:46:15;;;;;;;;;;;17.30;99.90;;;;;;4976740;28;20302;-76
2021/10/18 12:48:40;;;;;;;;;;;17.30;99.90;;;;;;4977596;28;19937;-79
2021/10/18 12:51:06;;;;;;;;;;;17.30;99.90;;;;;;4976474;28;19952;-77
2021/10/18 12:53:33;;;;;;;;;;;17.30;99.90;;;;;;4976926;28;20371;-77
2021/10/18 12:55:59;;;;;;;;;;;17.30;99.90;;;;;;4976537;28;20397;-77
2021/10/18 12:58:26;;;;;;;;;;;17.30;99.90;;;;;;4977203;28;19906;-76
2021/10/18 13:00:51;;;;;;;;;;;17.30;99.90;;;;;;4975080;28;20022;-79
2021/10/18 13:03:21;;;;;;;;;;;17.40;99.90;;;;;;4977208;28;19910;-78
2021/10/18 13:05:47;;;;;;;;;;;17.40;99.90;;;;;;4975999;28;19957;-76
2021/10/18 13:08:17;;;;;;;;;;;17.40;99.90;;;;;;4975924;28;19910;-76
2021/10/18 13:10:43;;;;;;;;;;;17.40;99.90;;;;;;4976045;28;19910;-75
2021/10/18 13:13:10;;;;;;;;;;;17.40;99.90;;;;;;4975725;28;20019;-78
2021/10/18 13:15:36;;;;;;;;;;;17.40;99.90;;;;;;4976280;28;20053;-81
2021/10/18 13:18:02;;;;;;;;;;;17.40;99.90;;;;;;4976553;28;19984;-78
2021/10/18 13:20:27;;;;;;;;;;;17.40;99.90;;;;;;4975830;28;20314;-80
2021/10/18 13:22:54;;;;;;;;;;;17.40;99.90;;;;;;4974389;28;19906;-79
2021/10/18 13:25:21;;;;;;;;;;;17.40;99.90;;;;;;4974015;28;19953;-76
2021/10/18 13:27:47;;;;;;;;;;;17.40;99.90;;;;;;4974062;28;19924;-79
2021/10/18 13:30:13;;;;;;;;;;;17.40;99.90;;;;;;4974312;28;19993;-76
2021/10/18 13:32:40;;;;;;;;;;;17.40;99.90;;;;;;4974930;28;19906;-78
2021/10/18 13:35:06;;;;;;;;;;;17.40;99.90;;;;;;4974715;28;20259;-76
2021/10/18 13:37:32;;;;;;;;;;;17.40;99.90;;;;;;4975783;28;19997;-76
2021/10/18 13:39:57;;;;;;;;;;;17.40;99.90;;;;;;4976080;28;20004;-77
2021/10/18 13:42:23;;;;;;;;;;;17.40;99.90;;;;;;4975502;28;19913;-76
2021/10/18 13:44:48;;;;;;;;;;;17.40;99.90;;;;;;4976038;28;20344;-77
2021/10/18 13:47:14;;;;;;;;;;;17.40;99.90;;;;;;4975442;28;19917;-76
2021/10/18 13:49:39;;;;;;;;;;;17.40;99.90;;;;;;4975921;28;19906;-76
2021/10/18 13:52:05;;;;;;;;;;;17.40;99.90;;;;;;4975473;28;19921;-76
2021/10/18 13:54:32;;;;;;;;;;;17.40;99.90;;;;;;4975836;28;19909;-74
2021/10/18 13:56:57;;;;;;;;;;;17.40;99.90;;;;;;4975993;28;20430;-77
2021/10/18 13:59:23;;;;;;;;;;;17.40;99.90;;;;;;4975639;28;20005;-78
2021/10/18 14:01:49;;;;;;;;;;;17.30;99.90;;;;;;4975510;28;19910;-77
2021/10/18 14:04:15;;;;;;;;;;;17.40;99.90;;;;;;4975620;28;19906;-77
2021/10/18 14:06:43;;;;;;;;;;;17.30;99.90;;;;;;4975689;28;19910;-75
2021/10/18 14:09:09;;;;;;;;;;;17.30;99.90;;;;;;4975872;28;19906;-75
2021/10/18 14:11:38;;;;;;;;;;;17.30;99.90;;;;;;4974917;28;19916;-75
2021/10/18 14:14:05;;;;;;;;;;;17.40;99.90;;;;;;4975682;28;19906;-78
2021/10/18 14:16:31;;;;;;;;;;;17.30;99.90;;;;;;4975476;28;19916;-87
2021/10/18 14:18:57;;;;;;;;;;;17.30;99.90;;;;;;4975319;28;19961;-80
2021/10/18 14:21:23;;;;;;;;;;;17.30;99.90;;;;;;4975585;28;20374;-76
2021/10/18 14:23:48;;;;;;;;;;;17.30;99.90;;;;;;4974913;28;19920;-78
2021/10/18 14:26:14;;;;;;;;;;;17.30;99.90;;;;;;4975309;28;20387;-79
2021/10/18 14:28:39;;;;;;;;;;;17.30;99.90;;;;;;4974947;28;19910;-77
2021/10/18 14:31:05;;;;;;;;;;;17.30;99.90;;;;;;4974877;28;19921;-78
2021/10/18 14:33:32;;;;;;;;;;;17.30;99.90;;;;;;4975279;28;19993;-77
2021/10/18 14:35:58;;;;;;;;;;;17.30;99.90;;;;;;4975458;28;19917;-78
2021/10/18 14:38:24;;;;;;;;;;;17.30;99.90;;;;;;4975092;28;20389;-78
2021/10/18 14:40:50;;;;;;;;;;;17.20;99.90;;;;;;4974777;28;20008;-79
2021/10/18 14:43:15;;;;;;;;;;;17.20;99.90;;;;;;4975154;28;19949;-77
2021/10/18 14:45:41;;;;;;;;;;;17.20;99.90;;;;;;4974900;28;19914;-77
2021/10/18 14:48:06;;;;;;;;;;;17.20;99.90;;;;;;4974550;28;19910;-75
2021/10/18 14:50:32;;;;;;;;;;;17.20;99.90;;;;;;4974891;28;19910;-80
2021/10/18 14:52:57;;;;;;;;;;;17.20;99.90;;;;;;4975520;28;19914;-77
2021/10/18 14:55:23;;;;;;;;;;;17.30;99.90;;;;;;4973859;28;19917;-79
2021/10/18 14:57:48;;;;;;;;;;;17.30;99.90;;;;;;4975104;28;19957;-76
2021/10/18 15:00:14;;;;;;;;;;;17.30;99.90;;;;;;4974554;28;19917;-74
2021/10/18 15:02:44;;;;;;;;;;;17.30;99.90;;;;;;4974175;28;20371;-73
2021/10/18 15:05:10;;;;;;;;;;;17.30;99.90;;;;;;4974867;28;19913;-77
2021/10/18 15:07:35;;;;;;;;;;;17.20;99.90;;;;;;4975109;28;19906;-76
2021/10/18 15:10:01;;;;;;;;;;;17.20;99.90;;;;;;4979660;28;19977;-78
2021/10/18 15:12:28;;;;;;;;;;;17.20;99.90;;;;;;4993583;28;19912;-76
2021/10/18 15:14:53;;;;;;;;;;;17.30;99.90;;;;;;4970531;28;20001;-75
2021/10/18 15:17:19;;;;;;;;;;;17.20;99.90;;;;;;4974696;28;20014;-77
2021/10/18 15:19:44;;;;;;;;;;;17.30;99.90;;;;;;4975063;28;19916;-80
2021/10/18 15:22:14;;;;;;;;;;;17.30;99.90;;;;;;4974871;28;19910;-77
2021/10/18 15:24:40;;;;;;;;;;;17.30;99.90;;;;;;4976413;28;19913;-78